createdAt,value
2019-06-26T00:04:49.891Z,99.90
2019-06-26T00:09:55.476Z,99.90
2019-06-26T00:15:01.134Z,99.90
2019-06-26T00:20:07.111Z,99.90
2019-06-26T00:25:12.751Z,99.90
2019-06-26T00:30:19.280Z,99.90
2019-06-26T00:35:24.864Z,99.90
2019-06-26T00:40:30.558Z,99.90
2019-06-26T00:45:36.110Z,99.90
2019-06-26T00:50:41.681Z,99.90
2019-06-26T00:55:47.293Z,99.90
2019-06-26T01:00:52.838Z,99.90
2019-06-26T01:05:58.329Z,99.90
2019-06-26T01:11:04.037Z,99.90
2019-06-26T01:16:09.629Z,99.90
2019-06-26T01:21:15.224Z,99.90
2019-06-26T01:26:20.794Z,99.90
2019-06-26T01:31:26.360Z,99.90
2019-06-26T01:36:32.176Z,99.90
2019-06-26T01:41:37.819Z,99.90
2019-06-26T01:46:43.448Z,99.90
2019-06-26T01:51:49.014Z,99.90
2019-06-26T01:56:54.584Z,99.90
2019-06-26T02:02:00.202Z,99.90
2019-06-26T02:07:05.794Z,99.90
2019-06-26T02:12:11.431Z,99.90
2019-06-26T02:17:17.080Z,99.90
2019-06-26T02:22:22.646Z,99.90
2019-06-26T02:27:28.260Z,99.90
2019-06-26T02:32:33.799Z,99.90
2019-06-26T02:37:39.448Z,99.90
2019-06-26T02:42:45.083Z,99.90
2019-06-26T02:47:50.706Z,99.90
2019-06-26T02:52:56.409Z,99.90
2019-06-26T02:58:01.980Z,99.90
2019-06-26T03:03:07.527Z,99.90
2019-06-26T03:08:13.171Z,99.90
2019-06-26T03:13:18.698Z,99.90
2019-06-26T03:18:24.279Z,99.90
2019-06-26T03:23:29.969Z,99.90
2019-06-26T03:28:35.530Z,99.90
2019-06-26T03:33:41.061Z,99.90
2019-06-26T03:38:46.608Z,99.90
2019-06-26T03:43:52.169Z,99.90
2019-06-26T03:48:57.709Z,99.90
2019-06-26T03:54:03.252Z,99.90
2019-06-26T03:59:08.780Z,99.90
2019-06-26T04:04:14.354Z,99.90
2019-06-26T04:09:19.906Z,99.90
2019-06-26T04:14:25.497Z,99.90
2019-06-26T04:19:31.317Z,99.90
2019-06-26T04:24:36.949Z,99.90
2019-06-26T04:29:42.640Z,99.90
2019-06-26T04:34:48.214Z,99.90
2019-06-26T04:39:53.996Z,99.90
2019-06-26T04:44:59.667Z,99.90
2019-06-26T04:50:06.045Z,99.90
2019-06-26T04:55:11.894Z,99.90
2019-06-26T05:00:21.638Z,99.90
2019-06-26T05:05:38.540Z,99.90
2019-06-26T05:10:32.435Z,99.90
2019-06-26T05:15:38.115Z,99.90
2019-06-26T05:20:43.823Z,99.90
2019-06-26T05:25:49.484Z,99.90
2019-06-26T05:30:55.050Z,99.90
2019-06-26T05:36:00.936Z,99.90
2019-06-26T05:41:06.589Z,99.90
2019-06-26T05:46:12.207Z,99.90
2019-06-26T05:51:17.840Z,99.90
2019-06-26T05:56:23.371Z,99.90
2019-06-26T06:01:28.990Z,99.90
2019-06-26T06:06:41.607Z,99.90
2019-06-26T06:11:41.946Z,99.90
2019-06-26T06:16:48.181Z,99.90
2019-06-26T06:21:53.880Z,99.90
2019-06-26T06:26:59.573Z,99.90
2019-06-26T06:32:05.169Z,99.90
2019-06-26T06:37:10.838Z,99.90
2019-06-26T06:42:16.585Z,99.90
2019-06-26T06:47:22.640Z,99.90
2019-06-26T06:52:28.759Z,99.90
2019-06-26T06:57:34.456Z,99.90
2019-06-26T07:02:40.167Z,99.90
2019-06-26T07:07:45.845Z,99.90
2019-06-26T07:12:51.574Z,99.90
2019-06-26T07:17:57.227Z,99.90
2019-06-26T07:23:02.893Z,99.90
2019-06-26T07:28:09.438Z,99.90
2019-06-26T07:33:15.468Z,99.90
2019-06-26T07:38:21.157Z,99.90
2019-06-26T07:43:26.775Z,99.90
2019-06-26T07:48:32.382Z,99.90
2019-06-26T07:53:38.083Z,99.90
2019-06-26T07:58:43.723Z,99.90
2019-06-26T08:03:49.412Z,99.90
2019-06-26T08:08:55.060Z,99.90
2019-06-26T08:14:00.661Z,99.90
2019-06-26T08:19:06.449Z,99.90
2019-06-26T08:24:12.086Z,99.90
2019-06-26T08:29:17.857Z,99.90
2019-06-26T08:34:23.480Z,99.90
2019-06-26T08:39:29.010Z,99.90
2019-06-26T08:44:34.706Z,99.90
2019-06-26T08:49:40.362Z,99.90
2019-06-26T08:54:46.235Z,99.90
2019-06-26T08:59:52.007Z,99.90
2019-06-26T09:04:57.556Z,99.90
2019-06-26T09:10:03.313Z,99.90
2019-06-26T09:15:10.741Z,99.90
2019-06-26T09:20:21.865Z,99.90
2019-06-26T09:25:27.739Z,99.90
2019-06-26T09:30:33.460Z,99.90
2019-06-26T09:35:39.089Z,99.90
2019-06-26T09:40:44.681Z,99.90
2019-06-26T09:45:50.266Z,99.90
2019-06-26T09:50:56.090Z,99.90
2019-06-26T09:56:01.990Z,99.90
2019-06-26T10:01:07.603Z,99.90
2019-06-26T10:06:13.295Z,99.90
2019-06-26T10:11:19.161Z,99.90
2019-06-26T10:16:24.864Z,99.90
2019-06-26T10:21:30.490Z,99.90
2019-06-26T10:26:38.665Z,99.90
2019-06-26T10:31:44.530Z,99.90
2019-06-26T10:36:50.193Z,99.90
2019-06-26T10:41:55.983Z,99.90
2019-06-26T10:47:01.726Z,99.90
2019-06-26T10:52:07.367Z,99.90
2019-06-26T10:57:13.129Z,99.90
2019-06-26T11:02:18.702Z,99.90
2019-06-26T11:07:24.266Z,99.90
2019-06-26T11:12:30.015Z,99.90
2019-06-26T11:17:35.847Z,99.90
2019-06-26T11:22:41.561Z,99.90
2019-06-26T11:27:47.351Z,99.90
2019-06-26T11:32:53.039Z,99.90
2019-06-26T11:37:58.638Z,99.90
2019-06-26T11:43:04.352Z,99.90
2019-06-26T11:48:10.141Z,99.90
2019-06-26T11:53:16.029Z,99.90
2019-06-26T11:58:21.634Z,99.90
2019-06-26T12:03:27.475Z,99.90
2019-06-26T12:08:33.158Z,99.90
2019-06-26T12:13:38.823Z,99.90
2019-06-26T12:18:44.520Z,99.90
2019-06-26T12:23:50.268Z,99.90
2019-06-26T12:28:56.110Z,99.90
2019-06-26T12:34:01.774Z,99.90
2019-06-26T12:39:08.012Z,99.90
2019-06-26T12:44:13.614Z,99.90
2019-06-26T12:49:19.263Z,99.90
2019-06-26T12:54:25.168Z,99.60
2019-06-26T12:59:30.775Z,99.90
2019-06-26T13:04:36.406Z,99.50
2019-06-26T13:09:42.040Z,99.20
2019-06-26T13:14:47.756Z,99.10
2019-06-26T13:19:54.735Z,98.70
2019-06-26T13:25:00.494Z,98.70
2019-06-26T13:30:07.000Z,98.60
2019-06-26T13:35:12.835Z,98.60
2019-06-26T13:40:18.704Z,98.40
2019-06-26T13:45:24.341Z,98.30
2019-06-26T13:50:30.045Z,98.20
2019-06-26T13:55:35.828Z,98.00
2019-06-26T14:00:41.574Z,98.00
2019-06-26T14:05:47.336Z,97.90
2019-06-26T14:10:53.011Z,97.70
2019-06-26T14:15:58.709Z,97.50
2019-06-26T14:21:04.275Z,97.40
2019-06-26T14:26:10.095Z,97.50
2019-06-26T14:31:15.889Z,97.50
2019-06-26T14:36:23.431Z,96.70
2019-06-26T14:41:28.843Z,97.60
2019-06-26T14:46:34.488Z,97.80
2019-06-26T14:51:46.786Z,96.60
2019-06-26T14:56:47.681Z,97.40
2019-06-26T15:01:53.359Z,97.50
2019-06-26T15:06:59.267Z,97.60
2019-06-26T15:12:05.047Z,97.20
2019-06-26T15:17:10.737Z,97.40
2019-06-26T15:22:16.400Z,97.60
2019-06-26T15:27:22.264Z,97.10
2019-06-26T15:32:28.064Z,96.90
2019-06-26T15:37:35.545Z,96.70
2019-06-26T15:42:41.128Z,97.10
2019-06-26T15:47:46.918Z,96.90
2019-06-26T15:52:52.740Z,97.00
2019-06-26T15:57:58.539Z,97.60
2019-06-26T16:03:04.065Z,96.50
2019-06-26T16:08:09.684Z,96.70
2019-06-26T16:13:15.498Z,96.40
2019-06-26T16:18:43.354Z,96.70
2019-06-26T16:23:49.253Z,96.70
2019-06-26T16:28:54.937Z,97.20
2019-06-26T16:34:00.690Z,97.30
2019-06-26T16:39:08.323Z,97.10
2019-06-26T16:44:13.939Z,97.20
2019-06-26T16:49:19.845Z,97.50
2019-06-26T16:54:25.532Z,97.50
2019-06-26T16:59:31.192Z,97.80
2019-06-26T17:04:37.013Z,97.80
2019-06-26T17:09:44.436Z,97.80
2019-06-26T17:14:50.330Z,97.50
2019-06-26T17:19:55.989Z,97.20
2019-06-26T17:25:02.247Z,97.60
2019-06-26T17:30:08.661Z,97.80
2019-06-26T17:35:14.730Z,98.20
2019-06-26T17:40:20.620Z,98.30
2019-06-26T17:45:26.242Z,98.30
2019-06-26T17:50:31.961Z,98.40
2019-06-26T17:55:37.670Z,98.60
2019-06-26T18:00:44.104Z,98.60
2019-06-26T18:05:49.802Z,98.70
2019-06-26T18:10:55.462Z,98.40
2019-06-26T18:16:01.143Z,98.60
2019-06-26T18:21:06.820Z,98.30
2019-06-26T18:26:13.981Z,98.50
2019-06-26T18:31:19.698Z,98.40
2019-06-26T18:36:25.459Z,98.80
2019-06-26T18:41:31.132Z,99.00
2019-06-26T18:46:37.102Z,99.20
2019-06-26T18:51:42.802Z,99.40
2019-06-26T18:56:48.510Z,99.20
2019-06-26T19:01:54.150Z,99.00
2019-06-26T19:07:00.350Z,99.40
2019-06-26T19:12:06.285Z,99.70
2019-06-26T19:17:12.052Z,99.40
2019-06-26T19:22:17.813Z,99.50
2019-06-26T19:27:25.844Z,99.60
2019-06-26T19:32:32.014Z,99.60
2019-06-26T19:37:37.907Z,99.80
2019-06-26T19:42:43.748Z,99.70
2019-06-26T19:47:49.922Z,99.80
2019-06-26T19:52:55.602Z,99.90
2019-06-26T19:58:01.150Z,99.90
2019-06-26T20:03:06.725Z,99.60
2019-06-26T20:08:12.998Z,99.60
2019-06-26T20:13:19.023Z,99.40
2019-06-26T20:18:24.795Z,98.80
2019-06-26T20:23:30.391Z,99.10
2019-06-26T20:28:35.957Z,99.00
2019-06-26T20:33:41.542Z,99.10
2019-06-26T20:38:47.214Z,99.20
2019-06-26T20:43:52.846Z,99.40
2019-06-26T20:48:58.489Z,99.40
2019-06-26T20:54:04.052Z,99.40
2019-06-26T20:59:09.614Z,99.20
2019-06-26T21:04:15.155Z,98.70
2019-06-26T21:09:20.988Z,99.00
2019-06-26T21:14:26.703Z,99.50
2019-06-26T21:19:32.388Z,99.70
2019-06-26T21:24:38.342Z,99.70
2019-06-26T21:29:43.943Z,99.80
2019-06-26T21:34:52.725Z,99.80
2019-06-26T21:39:58.437Z,99.90
2019-06-26T21:45:04.309Z,99.70
2019-06-26T21:50:10.040Z,99.90
2019-06-26T21:55:15.887Z,99.80
2019-06-26T22:00:21.878Z,97.90
2019-06-26T22:05:28.086Z,97.80
2019-06-26T22:10:33.754Z,98.90
2019-06-26T22:15:39.310Z,99.70
2019-06-26T22:20:44.979Z,99.90
2019-06-26T22:25:51.505Z,99.90
2019-06-26T22:30:57.198Z,99.90
2019-06-26T22:36:02.967Z,99.90
2019-06-26T22:41:08.565Z,99.90
2019-06-26T22:46:14.116Z,99.90
2019-06-26T22:51:19.716Z,99.90
2019-06-26T22:56:25.780Z,99.90
2019-06-26T23:01:31.454Z,99.90
2019-06-26T23:06:37.605Z,99.90
2019-06-26T23:11:43.222Z,99.90
2019-06-26T23:16:48.995Z,99.90
2019-06-26T23:21:54.683Z,99.90
2019-06-26T23:27:00.480Z,99.90
2019-06-26T23:32:15.689Z,99.90
2019-06-26T23:37:33.918Z,99.90
2019-06-26T23:42:45.956Z,99.90
2019-06-26T23:47:59.555Z,99.90
2019-06-26T23:53:03.755Z,99.90
2019-06-26T23:58:09.316Z,99.90
